createdAt,value
2023-05-23T00:01:26.418Z,27.65
2023-05-23T00:03:28.916Z,26.20
2023-05-23T00:05:30.919Z,24.52
2023-05-23T00:07:32.615Z,25.80
2023-05-23T00:09:34.382Z,26.85
2023-05-23T00:11:37.464Z,25.02
2023-05-23T00:13:39.936Z,25.55
2023-05-23T00:15:45.210Z,25.60
2023-05-23T00:17:48.063Z,25.58
2023-05-23T00:19:49.813Z,23.42
2023-05-23T00:21:53.849Z,26.75
2023-05-23T00:23:55.635Z,24.27
2023-05-23T00:25:58.696Z,24.20
2023-05-23T00:28:01.132Z,24.08
2023-05-23T00:30:03.398Z,26.05
2023-05-23T00:32:05.728Z,25.23
2023-05-23T00:34:07.474Z,24.00
2023-05-23T00:36:09.354Z,24.05
2023-05-23T00:38:11.719Z,23.70
2023-05-23T00:40:13.649Z,26.33
2023-05-23T00:42:15.391Z,25.80
2023-05-23T00:44:17.145Z,22.90
2023-05-23T00:46:19.174Z,24.73
2023-05-23T00:48:21.062Z,25.02
2023-05-23T00:50:22.902Z,23.23
2023-05-23T00:52:25.082Z,24.63
2023-05-23T00:54:29.640Z,24.65
2023-05-23T00:56:32.525Z,24.90
2023-05-23T00:58:34.274Z,25.48
2023-05-23T01:00:38.708Z,26.27
2023-05-23T01:02:45.360Z,25.25
2023-05-23T01:04:54.467Z,25.35
2023-05-23T01:06:56.854Z,26.10
2023-05-23T01:09:02.488Z,24.55
2023-05-23T01:11:07.292Z,26.55
2023-05-23T01:13:43.709Z,24.70
2023-05-23T01:16:03.819Z,23.83
2023-05-23T01:18:14.527Z,28.75
2023-05-23T01:20:41.096Z,26.67
2023-05-23T01:22:48.738Z,25.85
2023-05-23T01:24:57.848Z,25.55
2023-05-23T01:27:46.262Z,23.58
2023-05-23T01:29:55.181Z,22.63
2023-05-23T01:31:58.615Z,24.90
2023-05-23T01:34:01.265Z,22.90
2023-05-23T01:36:06.061Z,22.73
2023-05-23T01:38:07.818Z,21.23
2023-05-23T01:40:09.929Z,21.88
2023-05-23T01:42:12.044Z,22.90
2023-05-23T01:44:13.758Z,22.83
2023-05-23T01:46:16.610Z,22.08
2023-05-23T01:48:21.908Z,21.90
2023-05-23T01:50:24.306Z,22.52
2023-05-23T01:52:29.012Z,24.80
2023-05-23T01:54:30.973Z,25.08
2023-05-23T01:56:33.687Z,24.92
2023-05-23T01:58:35.490Z,24.35
2023-05-23T02:00:37.318Z,24.20
2023-05-23T02:02:39.250Z,26.50
2023-05-23T02:04:41.015Z,24.75
2023-05-23T02:06:42.751Z,25.63
2023-05-23T02:08:44.520Z,25.02
2023-05-23T02:10:46.305Z,25.50
2023-05-23T02:12:48.265Z,24.00
2023-05-23T02:14:52.340Z,24.92
2023-05-23T02:16:54.947Z,24.95
2023-05-23T02:18:57.067Z,24.23
2023-05-23T02:20:59.000Z,24.83
2023-05-23T02:23:01.046Z,24.90
2023-05-23T02:25:02.960Z,23.45
2023-05-23T02:27:05.013Z,24.35
2023-05-23T02:29:06.847Z,23.83
2023-05-23T02:31:08.714Z,21.55
2023-05-23T02:33:10.953Z,24.73
2023-05-23T02:35:12.729Z,24.13
2023-05-23T02:37:15.006Z,24.20
2023-05-23T02:39:16.816Z,26.02
2023-05-23T02:41:18.532Z,27.00
2023-05-23T02:43:20.568Z,27.77
2023-05-23T02:45:22.259Z,27.25
2023-05-23T02:47:24.024Z,29.00
2023-05-23T02:49:25.994Z,28.20
2023-05-23T02:51:27.793Z,27.92
2023-05-23T02:53:29.631Z,24.25
2023-05-23T02:55:32.016Z,25.10
2023-05-23T02:57:33.742Z,27.58
2023-05-23T02:59:35.672Z,26.15
2023-05-23T03:01:37.933Z,24.08
2023-05-23T03:03:41.736Z,26.35
2023-05-23T03:05:43.672Z,25.48
2023-05-23T03:07:46.058Z,28.88
2023-05-23T03:09:48.120Z,25.45
2023-05-23T03:11:50.058Z,25.77
2023-05-23T03:13:52.127Z,25.73
2023-05-23T03:15:54.099Z,25.45
2023-05-23T03:17:56.057Z,26.20
2023-05-23T03:19:58.008Z,24.70
2023-05-23T03:21:59.843Z,22.27
2023-05-23T03:24:01.757Z,24.92
2023-05-23T03:26:04.244Z,21.65
2023-05-23T03:28:06.198Z,24.05
2023-05-23T03:30:11.784Z,21.73
2023-05-23T03:32:13.845Z,23.27
2023-05-23T03:34:16.593Z,22.88
2023-05-23T03:36:18.683Z,22.17
2023-05-23T03:38:21.040Z,20.30
2023-05-23T03:40:22.963Z,20.67
2023-05-23T03:42:24.865Z,19.15
2023-05-23T03:44:26.812Z,18.17
2023-05-23T03:46:28.730Z,16.83
2023-05-23T03:48:30.831Z,16.95
2023-05-23T03:50:32.766Z,16.90
2023-05-23T03:52:34.827Z,15.15
2023-05-23T03:54:36.838Z,14.77
2023-05-23T03:56:38.720Z,15.27
2023-05-23T03:58:40.626Z,14.48
2023-05-23T04:00:42.511Z,14.60
2023-05-23T04:02:46.537Z,13.85
2023-05-23T04:04:48.691Z,12.23
2023-05-23T04:06:51.005Z,13.40
2023-05-23T04:08:52.896Z,14.07
2023-05-23T04:10:54.852Z,14.07
2023-05-23T04:12:57.133Z,12.10
2023-05-23T04:14:59.279Z,13.25
2023-05-23T04:17:01.292Z,13.20
2023-05-23T04:19:05.927Z,12.80
2023-05-23T04:21:08.033Z,11.77
2023-05-23T04:23:09.938Z,13.68
2023-05-23T04:25:11.867Z,12.57
2023-05-23T04:27:14.337Z,12.43
2023-05-23T04:29:20.657Z,13.63
2023-05-23T04:31:22.717Z,12.70
2023-05-23T04:33:25.089Z,13.60
2023-05-23T04:35:29.615Z,13.93
2023-05-23T04:37:33.115Z,11.52
2023-05-23T04:39:34.867Z,12.60
2023-05-23T04:41:36.840Z,12.45
2023-05-23T04:43:42.723Z,15.15
2023-05-23T04:45:44.916Z,15.07
2023-05-23T04:47:46.864Z,17.20
2023-05-23T04:49:48.768Z,14.05
2023-05-23T04:51:51.248Z,15.93
2023-05-23T04:53:53.055Z,15.25
2023-05-23T04:55:54.880Z,15.75
2023-05-23T04:57:56.942Z,15.05
2023-05-23T04:59:58.689Z,13.45
2023-05-23T05:02:00.852Z,13.15
2023-05-23T05:04:02.572Z,14.23
2023-05-23T05:06:04.503Z,14.25
2023-05-23T05:08:06.530Z,13.90
2023-05-23T05:10:09.518Z,14.38
2023-05-23T05:12:11.258Z,13.82
2023-05-23T05:14:13.006Z,12.85
2023-05-23T05:16:14.906Z,12.57
2023-05-23T05:18:16.927Z,13.70
2023-05-23T05:20:18.700Z,11.75
2023-05-23T05:22:20.458Z,13.38
2023-05-23T05:24:22.811Z,13.30
2023-05-23T05:26:24.662Z,12.63
2023-05-23T05:28:26.940Z,11.65
2023-05-23T05:30:36.117Z,11.70
2023-05-23T05:32:38.385Z,12.25
2023-05-23T05:34:40.917Z,11.93
2023-05-23T05:36:47.580Z,10.73
2023-05-23T05:38:50.344Z,11.15
2023-05-23T05:40:52.743Z,11.80
2023-05-23T05:42:55.154Z,10.60
2023-05-23T05:44:56.978Z,11.52
2023-05-23T05:46:58.764Z,10.88
2023-05-23T05:49:00.695Z,9.48
2023-05-23T05:51:03.416Z,9.93
2023-05-23T05:53:05.242Z,8.95
2023-05-23T05:55:11.614Z,8.95
2023-05-23T05:57:13.364Z,9.55
2023-05-23T05:59:15.072Z,9.23
2023-05-23T06:01:17.653Z,10.25
2023-05-23T06:03:19.453Z,10.27
2023-05-23T06:05:21.229Z,9.35
2023-05-23T06:07:22.980Z,9.90
2023-05-23T06:09:24.733Z,9.20
2023-05-23T06:11:26.993Z,8.10
2023-05-23T06:13:28.761Z,9.85
2023-05-23T06:15:30.913Z,8.02
2023-05-23T06:17:32.828Z,8.45
2023-05-23T06:19:35.242Z,8.25
2023-05-23T06:21:37.148Z,10.80
2023-05-23T06:23:39.110Z,8.98
2023-05-23T06:25:40.923Z,10.73
2023-05-23T06:27:42.747Z,9.48
2023-05-23T06:29:44.596Z,9.10
2023-05-23T06:31:46.643Z,9.90
2023-05-23T06:33:48.546Z,7.78
2023-05-23T06:35:50.355Z,8.23
2023-05-23T06:37:52.118Z,8.98
2023-05-23T06:39:58.341Z,8.55
2023-05-23T06:42:01.276Z,9.27
2023-05-23T06:44:03.122Z,8.70
2023-05-23T06:46:05.098Z,8.57
2023-05-23T06:48:07.084Z,7.80
2023-05-23T06:50:12.029Z,9.07
2023-05-23T06:52:13.891Z,7.28
2023-05-23T06:54:15.724Z,7.18
2023-05-23T06:56:17.623Z,7.03
2023-05-23T06:58:25.306Z,5.93
2023-05-23T07:00:27.406Z,6.50
2023-05-23T07:02:29.226Z,5.82
2023-05-23T07:04:31.031Z,5.55
2023-05-23T07:06:33.072Z,6.45
2023-05-23T07:08:35.030Z,5.00
2023-05-23T07:10:37.018Z,6.03
2023-05-23T07:12:41.566Z,5.25
2023-05-23T07:14:43.309Z,5.45
2023-05-23T07:16:45.104Z,4.85
2023-05-23T07:18:46.935Z,4.65
2023-05-23T07:20:48.780Z,4.32
2023-05-23T07:22:51.740Z,4.75
2023-05-23T07:24:53.507Z,3.83
2023-05-23T07:26:55.653Z,4.55
2023-05-23T07:28:57.438Z,3.45
2023-05-23T07:31:00.979Z,3.47
2023-05-23T07:33:05.943Z,3.28
2023-05-23T07:35:10.752Z,3.83
2023-05-23T07:37:12.782Z,3.58
2023-05-23T07:39:15.991Z,3.58
2023-05-23T07:41:18.104Z,3.03
2023-05-23T07:43:20.474Z,3.08
2023-05-23T07:45:28.715Z,3.05
2023-05-23T07:47:30.714Z,2.67
2023-05-23T07:49:34.096Z,3.10
2023-05-23T07:51:36.781Z,2.33
2023-05-23T07:53:48.124Z,2.88
2023-05-23T07:55:50.190Z,2.95
2023-05-23T07:57:56.854Z,3.17
2023-05-23T07:59:59.141Z,3.30
2023-05-23T08:02:03.624Z,3.03
2023-05-23T08:04:07.910Z,3.22
2023-05-23T08:06:10.760Z,2.67
2023-05-23T08:08:19.367Z,3.45
2023-05-23T08:10:30.670Z,3.30
2023-05-23T08:12:32.846Z,3.42
2023-05-23T08:14:49.977Z,3.10
2023-05-23T08:16:54.356Z,3.55
2023-05-23T08:18:56.663Z,3.67
2023-05-23T08:20:59.244Z,3.60
2023-05-23T08:23:02.618Z,3.42
2023-05-23T08:25:05.755Z,4.00
2023-05-23T08:27:08.512Z,3.15
2023-05-23T08:29:11.241Z,3.33
2023-05-23T08:31:14.108Z,3.60
2023-05-23T08:33:28.615Z,4.30
2023-05-23T08:35:35.789Z,4.20
2023-05-23T08:37:38.797Z,3.17
2023-05-23T08:39:41.957Z,4.25
2023-05-23T08:41:45.651Z,4.55
2023-05-23T08:43:48.489Z,4.25
2023-05-23T08:45:52.615Z,4.13
2023-05-23T08:47:56.419Z,4.55
2023-05-23T08:50:07.951Z,4.47
2023-05-23T08:52:13.057Z,3.90
2023-05-23T08:54:15.902Z,3.70
2023-05-23T08:56:19.602Z,3.67
2023-05-23T08:58:38.648Z,4.25
2023-05-23T09:00:42.461Z,3.80
2023-05-23T09:02:45.655Z,3.92
2023-05-23T09:04:48.742Z,3.38
2023-05-23T09:06:51.455Z,3.83
2023-05-23T09:08:53.919Z,3.05
2023-05-23T09:10:57.163Z,4.22
2023-05-23T09:13:00.398Z,2.92
2023-05-23T09:15:03.372Z,3.17
2023-05-23T09:17:06.058Z,3.40
2023-05-23T09:19:13.854Z,3.22
2023-05-23T09:21:16.900Z,3.03
2023-05-23T09:23:20.171Z,3.50
2023-05-23T09:25:22.412Z,3.53
2023-05-23T09:27:25.408Z,2.53
2023-05-23T09:29:39.444Z,2.80
2023-05-23T09:31:41.827Z,2.67
2023-05-23T09:33:48.770Z,3.03
2023-05-23T09:35:50.699Z,2.58
2023-05-23T09:38:02.438Z,2.72
2023-05-23T09:40:23.404Z,2.63
2023-05-23T09:42:26.343Z,2.97
2023-05-23T09:44:28.610Z,2.60
2023-05-23T09:46:31.077Z,2.60
2023-05-23T09:48:34.355Z,2.50
2023-05-23T09:50:36.465Z,2.50
2023-05-23T09:52:39.245Z,2.65
2023-05-23T09:54:48.529Z,2.60
2023-05-23T09:56:53.684Z,3.17
2023-05-23T09:58:59.620Z,2.53
2023-05-23T10:01:03.902Z,2.40
2023-05-23T10:03:14.775Z,2.15
2023-05-23T10:05:39.558Z,1.90
2023-05-23T10:07:45.194Z,2.58
2023-05-23T10:09:58.885Z,2.50
2023-05-23T10:12:23.369Z,2.50
2023-05-23T10:14:27.417Z,2.55
2023-05-23T10:16:49.746Z,2.40
2023-05-23T10:19:21.094Z,2.97
2023-05-23T10:21:27.661Z,2.53
2023-05-23T10:23:29.954Z,2.95
2023-05-23T10:25:31.828Z,3.35
2023-05-23T10:27:33.706Z,2.55
2023-05-23T10:29:36.600Z,3.25
2023-05-23T10:31:39.059Z,3.03
2023-05-23T10:33:44.082Z,3.45
2023-05-23T10:35:59.935Z,3.20
2023-05-23T10:38:15.930Z,3.25
2023-05-23T10:40:44.213Z,3.63
2023-05-23T10:42:52.488Z,3.50
2023-05-23T10:45:18.303Z,3.42
2023-05-23T10:47:27.893Z,3.53
2023-05-23T10:49:49.047Z,4.07
2023-05-23T10:51:54.513Z,3.70
2023-05-23T10:53:56.400Z,3.42
2023-05-23T10:55:58.542Z,3.10
2023-05-23T10:58:17.438Z,4.57
2023-05-23T11:00:19.690Z,3.83
2023-05-23T11:02:29.030Z,3.90
2023-05-23T11:04:30.989Z,3.95
2023-05-23T11:06:39.649Z,4.22
2023-05-23T11:08:48.265Z,4.55
2023-05-23T11:10:55.081Z,4.30
2023-05-23T11:13:07.352Z,4.93
2023-05-23T11:15:17.955Z,4.03
2023-05-23T11:17:32.457Z,4.38
2023-05-23T11:19:34.331Z,4.88
2023-05-23T11:21:37.583Z,3.92
2023-05-23T11:23:42.255Z,4.63
2023-05-23T11:25:54.087Z,5.28
2023-05-23T11:27:55.911Z,4.53
2023-05-23T11:30:02.263Z,4.60
2023-05-23T11:32:16.875Z,4.13
2023-05-23T11:34:19.468Z,5.10
2023-05-23T11:36:22.663Z,4.68
2023-05-23T11:38:24.763Z,5.25
2023-05-23T11:40:31.946Z,4.05
2023-05-23T11:42:33.803Z,4.68
2023-05-23T11:44:35.795Z,4.70
2023-05-23T11:46:37.577Z,4.78
2023-05-23T11:48:45.191Z,5.18
2023-05-23T11:50:52.522Z,5.10
2023-05-23T11:52:55.555Z,4.28
2023-05-23T11:55:01.372Z,4.35
2023-05-23T11:57:05.724Z,5.60
2023-05-23T11:59:07.764Z,4.40
2023-05-23T12:01:10.931Z,5.15
2023-05-23T12:03:12.957Z,4.15
2023-05-23T12:05:15.180Z,4.65
2023-05-23T12:07:21.046Z,4.45
2023-05-23T12:09:22.911Z,5.25
2023-05-23T12:11:26.292Z,4.95
2023-05-23T12:13:31.131Z,4.32
2023-05-23T12:15:32.909Z,4.57
2023-05-23T12:17:34.821Z,4.25
2023-05-23T12:19:36.715Z,4.40
2023-05-23T12:21:49.082Z,4.88
2023-05-23T12:23:50.910Z,5.45
2023-05-23T12:25:53.520Z,5.75
2023-05-23T12:27:56.484Z,4.78
2023-05-23T12:30:30.882Z,7.03
2023-05-23T12:32:33.353Z,4.53
2023-05-23T12:34:35.122Z,5.55
2023-05-23T12:36:47.898Z,5.47
2023-05-23T12:38:51.044Z,5.13
2023-05-23T12:41:28.403Z,5.22
2023-05-23T12:43:30.206Z,4.43
2023-05-23T12:45:36.935Z,5.43
2023-05-23T12:47:38.880Z,5.30
2023-05-23T12:49:40.867Z,5.57
2023-05-23T12:51:42.627Z,5.53
2023-05-23T12:53:44.834Z,5.43
2023-05-23T12:55:46.630Z,5.38
2023-05-23T12:57:48.560Z,5.22
2023-05-23T12:59:50.349Z,5.80
2023-05-23T13:01:52.352Z,5.55
2023-05-23T13:03:54.203Z,6.22
2023-05-23T13:05:55.983Z,5.00
2023-05-23T13:07:59.656Z,6.20
2023-05-23T13:10:02.612Z,6.38
2023-05-23T13:12:04.776Z,5.97
2023-05-23T13:14:06.820Z,5.63
2023-05-23T13:16:09.655Z,6.15
2023-05-23T13:18:11.736Z,6.78
2023-05-23T13:20:14.758Z,5.68
2023-05-23T13:22:16.741Z,5.43
2023-05-23T13:24:18.521Z,5.65
2023-05-23T13:26:20.302Z,5.72
2023-05-23T13:28:22.172Z,4.97
2023-05-23T13:30:24.668Z,5.20
2023-05-23T13:32:26.870Z,6.03
2023-05-23T13:34:28.824Z,5.82
2023-05-23T13:36:30.780Z,6.07
2023-05-23T13:38:32.649Z,7.05
2023-05-23T13:40:34.455Z,5.95
2023-05-23T13:42:36.419Z,5.32
2023-05-23T13:44:38.181Z,5.90
2023-05-23T13:46:39.993Z,5.72
2023-05-23T13:48:41.843Z,6.63
2023-05-23T13:50:44.017Z,5.05
2023-05-23T13:52:49.100Z,5.68
2023-05-23T13:54:52.226Z,5.32
2023-05-23T13:56:53.917Z,5.68
2023-05-23T13:58:55.761Z,6.68
2023-05-23T14:00:57.892Z,5.78
2023-05-23T14:02:59.698Z,5.75
2023-05-23T14:05:01.637Z,5.72
2023-05-23T14:07:04.176Z,5.07
2023-05-23T14:09:06.830Z,5.38
2023-05-23T14:11:08.574Z,4.97
2023-05-23T14:13:11.116Z,5.68
2023-05-23T14:15:12.925Z,5.15
2023-05-23T14:17:16.190Z,5.68
2023-05-23T14:19:18.059Z,5.75
2023-05-23T14:21:19.822Z,6.25
2023-05-23T14:23:21.706Z,5.68
2023-05-23T14:25:23.473Z,5.20
2023-05-23T14:27:25.486Z,6.40
2023-05-23T14:29:27.264Z,5.53
2023-05-23T14:31:29.047Z,5.30
2023-05-23T14:33:31.152Z,6.50
2023-05-23T14:35:32.879Z,6.03
2023-05-23T14:37:37.416Z,7.20
2023-05-23T14:39:41.278Z,6.53
2023-05-23T14:41:43.712Z,6.03
2023-05-23T14:43:45.590Z,5.80
2023-05-23T14:45:59.808Z,7.40
2023-05-23T14:48:02.532Z,6.70
2023-05-23T14:50:04.974Z,6.45
2023-05-23T14:52:06.902Z,5.97
2023-05-23T14:54:12.188Z,6.45
2023-05-23T14:56:13.930Z,6.22
2023-05-23T14:58:16.490Z,5.55
2023-05-23T15:00:19.622Z,5.80
2023-05-23T15:02:21.525Z,5.95
2023-05-23T15:04:24.411Z,5.82
2023-05-23T15:06:26.753Z,5.25
2023-05-23T15:08:29.564Z,4.53
2023-05-23T15:10:31.367Z,4.28
2023-05-23T15:12:33.078Z,4.70
2023-05-23T15:14:34.813Z,4.72
2023-05-23T15:16:37.070Z,3.72
2023-05-23T15:18:42.035Z,3.30
2023-05-23T15:20:44.089Z,4.13
2023-05-23T15:22:46.281Z,3.63
2023-05-23T15:24:47.991Z,4.10
2023-05-23T15:26:49.696Z,3.40
2023-05-23T15:28:54.754Z,3.60
2023-05-23T15:30:57.251Z,4.07
2023-05-23T15:33:01.378Z,3.92
2023-05-23T15:35:03.777Z,3.83
2023-05-23T15:37:05.498Z,4.35
2023-05-23T15:39:07.249Z,5.45
2023-05-23T15:41:08.999Z,4.97
2023-05-23T15:43:10.895Z,4.93
2023-05-23T15:45:12.696Z,4.65
2023-05-23T15:47:15.001Z,5.28
2023-05-23T15:49:25.948Z,5.85
2023-05-23T15:51:29.236Z,5.80
2023-05-23T15:53:34.389Z,5.60
2023-05-23T15:55:41.890Z,5.90
2023-05-23T15:57:44.176Z,5.97
2023-05-23T15:59:45.971Z,6.70
2023-05-23T16:01:47.830Z,5.18
2023-05-23T16:03:49.943Z,6.90
2023-05-23T16:05:52.292Z,7.25
2023-05-23T16:07:54.028Z,5.75
2023-05-23T16:09:56.018Z,5.82
2023-05-23T16:11:58.370Z,5.95
2023-05-23T16:14:00.295Z,5.53
2023-05-23T16:16:03.512Z,6.20
2023-05-23T16:18:05.415Z,5.97
2023-05-23T16:20:08.462Z,6.07
2023-05-23T16:22:10.196Z,5.80
2023-05-23T16:24:14.277Z,6.53
2023-05-23T16:26:17.079Z,5.97
2023-05-23T16:28:21.007Z,5.88
2023-05-23T16:30:24.026Z,6.25
2023-05-23T16:32:28.741Z,6.32
2023-05-23T16:34:30.557Z,6.25
2023-05-23T16:36:33.004Z,5.82
2023-05-23T16:38:34.821Z,5.40
2023-05-23T16:40:38.106Z,6.82
2023-05-23T16:42:39.885Z,5.38
2023-05-23T16:44:41.895Z,5.78
2023-05-23T16:46:43.856Z,6.13
2023-05-23T16:48:46.115Z,6.07
2023-05-23T16:50:47.806Z,6.18
2023-05-23T16:52:53.273Z,5.20
2023-05-23T16:54:55.925Z,6.57
2023-05-23T16:57:01.933Z,6.63
2023-05-23T16:59:03.909Z,5.93
2023-05-23T17:01:07.768Z,6.25
2023-05-23T17:03:10.462Z,6.40
2023-05-23T17:05:12.299Z,7.03
2023-05-23T17:07:15.496Z,6.97
2023-05-23T17:09:18.311Z,7.00
2023-05-23T17:11:20.250Z,5.95
2023-05-23T17:13:22.176Z,7.80
2023-05-23T17:15:24.348Z,7.18
2023-05-23T17:17:26.099Z,6.78
2023-05-23T17:19:27.953Z,7.20
2023-05-23T17:21:29.762Z,6.65
2023-05-23T17:23:31.483Z,6.82
2023-05-23T17:25:33.210Z,7.28
2023-05-23T17:27:35.006Z,7.13
2023-05-23T17:29:36.832Z,5.97
2023-05-23T17:31:38.688Z,5.63
2023-05-23T17:33:40.564Z,5.15
2023-05-23T17:35:42.658Z,6.05
2023-05-23T17:37:45.276Z,6.22
2023-05-23T17:39:48.203Z,5.82
2023-05-23T17:41:49.967Z,6.65
2023-05-23T17:43:51.765Z,6.10
2023-05-23T17:45:53.461Z,5.90
2023-05-23T17:47:55.421Z,5.95
2023-05-23T17:49:58.107Z,5.07
2023-05-23T17:52:04.723Z,5.82
2023-05-23T17:54:06.497Z,6.43
2023-05-23T17:56:11.795Z,5.35
2023-05-23T17:58:13.619Z,5.88
2023-05-23T18:00:16.337Z,6.80
2023-05-23T18:02:18.549Z,6.07
2023-05-23T18:04:20.447Z,6.82
2023-05-23T18:06:22.252Z,6.68
2023-05-23T18:08:23.999Z,6.35
2023-05-23T18:10:25.859Z,6.63
2023-05-23T18:12:27.614Z,6.65
2023-05-23T18:14:29.428Z,6.25
2023-05-23T18:16:32.403Z,5.70
2023-05-23T18:18:34.226Z,4.97
2023-05-23T18:20:36.211Z,5.53
2023-05-23T18:22:37.971Z,5.47
2023-05-23T18:24:40.728Z,4.75
2023-05-23T18:26:43.309Z,4.60
2023-05-23T18:28:45.144Z,5.15
2023-05-23T18:30:46.946Z,4.15
2023-05-23T18:32:48.844Z,5.28
2023-05-23T18:34:50.739Z,5.95
2023-05-23T18:36:52.497Z,5.57
2023-05-23T18:38:54.361Z,5.75
2023-05-23T18:40:56.299Z,6.25
2023-05-23T18:42:58.033Z,6.28
2023-05-23T18:44:59.817Z,5.95
2023-05-23T18:47:01.702Z,6.40
2023-05-23T18:49:03.771Z,6.40
2023-05-23T18:51:07.051Z,6.72
2023-05-23T18:53:09.098Z,6.50
2023-05-23T18:55:11.571Z,7.80
2023-05-23T18:57:13.413Z,7.35
2023-05-23T18:59:16.985Z,6.65
2023-05-23T19:01:18.847Z,6.88
2023-05-23T19:03:21.073Z,7.07
2023-05-23T19:05:22.986Z,6.97
2023-05-23T19:07:24.749Z,7.55
2023-05-23T19:09:26.508Z,6.35
2023-05-23T19:11:28.299Z,7.75
2023-05-23T19:13:30.392Z,7.03
2023-05-23T19:15:32.161Z,7.32
2023-05-23T19:17:33.963Z,7.45
2023-05-23T19:19:36.760Z,8.07
2023-05-23T19:21:38.574Z,7.72
2023-05-23T19:23:40.360Z,8.90
2023-05-23T19:25:44.947Z,8.55
2023-05-23T19:27:46.701Z,7.53
2023-05-23T19:29:48.499Z,9.77
2023-05-23T19:31:50.509Z,9.23
2023-05-23T19:33:52.290Z,9.10
2023-05-23T19:35:55.038Z,8.20
2023-05-23T19:37:57.352Z,9.23
2023-05-23T19:39:59.157Z,8.85
2023-05-23T19:42:00.928Z,8.52
2023-05-23T19:44:02.862Z,9.00
2023-05-23T19:46:04.681Z,9.50
2023-05-23T19:48:07.005Z,10.07
2023-05-23T19:50:14.266Z,10.65
2023-05-23T19:52:16.061Z,9.98
2023-05-23T19:54:17.922Z,9.85
2023-05-23T19:56:20.156Z,10.20
2023-05-23T19:58:22.347Z,10.88
2023-05-23T20:00:24.215Z,10.18
2023-05-23T20:02:26.224Z,11.05
2023-05-23T20:04:28.538Z,10.43
2023-05-23T20:06:30.244Z,11.02
2023-05-23T20:08:32.021Z,11.32
2023-05-23T20:10:33.879Z,11.13
2023-05-23T20:12:35.838Z,12.18
2023-05-23T20:14:37.721Z,10.82
2023-05-23T20:16:40.055Z,13.02
2023-05-23T20:18:42.825Z,11.75
2023-05-23T20:20:44.715Z,10.82
2023-05-23T20:22:46.467Z,12.02
2023-05-23T20:24:51.265Z,11.27
2023-05-23T20:26:53.069Z,13.52
2023-05-23T20:28:54.877Z,10.27
2023-05-23T20:30:56.856Z,12.57
2023-05-23T20:32:58.716Z,12.40
2023-05-23T20:35:00.472Z,11.75
2023-05-23T20:37:03.625Z,11.20
2023-05-23T20:39:05.734Z,11.50
2023-05-23T20:41:07.714Z,11.30
2023-05-23T20:43:10.277Z,11.93
2023-05-23T20:45:12.214Z,11.20
2023-05-23T20:47:15.619Z,12.60
2023-05-23T20:49:17.872Z,11.80
2023-05-23T20:51:19.800Z,14.25
2023-05-23T20:53:21.590Z,11.93
2023-05-23T20:55:23.342Z,11.77
2023-05-23T20:57:25.046Z,11.82
2023-05-23T20:59:26.860Z,11.57
2023-05-23T21:01:29.162Z,11.48
2023-05-23T21:03:31.098Z,11.48
2023-05-23T21:05:32.886Z,11.07
2023-05-23T21:07:34.966Z,9.93
2023-05-23T21:09:36.731Z,11.65
2023-05-23T21:11:38.478Z,11.55
2023-05-23T21:13:40.409Z,13.00
2023-05-23T21:15:42.410Z,13.52
2023-05-23T21:17:44.512Z,13.70
2023-05-23T21:19:46.383Z,13.13
2023-05-23T21:21:48.198Z,13.13
2023-05-23T21:23:49.915Z,13.63
2023-05-23T21:25:53.120Z,13.88
2023-05-23T21:27:54.961Z,13.05
2023-05-23T21:29:56.764Z,11.63
2023-05-23T21:31:58.769Z,12.48
2023-05-23T21:34:11.038Z,11.90
2023-05-23T21:36:20.910Z,12.95
2023-05-23T21:38:24.179Z,12.18
2023-05-23T21:40:27.146Z,12.10
2023-05-23T21:42:31.086Z,12.98
2023-05-23T21:44:33.020Z,12.77
2023-05-23T21:46:34.914Z,13.10
2023-05-23T21:48:36.682Z,12.10
2023-05-23T21:50:38.435Z,12.35
2023-05-23T21:52:40.163Z,11.05
2023-05-23T21:54:41.954Z,11.82
2023-05-23T21:56:43.752Z,12.02
2023-05-23T21:58:45.561Z,10.85
2023-05-23T22:00:47.338Z,12.43
2023-05-23T22:02:49.162Z,11.98
2023-05-23T22:04:50.957Z,10.80
2023-05-23T22:06:52.783Z,12.73
2023-05-23T22:08:54.734Z,12.70
2023-05-23T22:10:56.592Z,12.45
2023-05-23T22:12:58.493Z,11.98
2023-05-23T22:15:00.255Z,11.52
2023-05-23T22:17:02.424Z,12.15
2023-05-23T22:19:05.352Z,12.57
2023-05-23T22:21:07.086Z,12.75
2023-05-23T22:23:10.071Z,13.13
2023-05-23T22:25:11.872Z,13.60
2023-05-23T22:27:13.653Z,13.35
2023-05-23T22:29:15.471Z,13.77
2023-05-23T22:31:17.273Z,13.43
2023-05-23T22:33:19.124Z,13.70
2023-05-23T22:35:20.925Z,13.43
2023-05-23T22:37:22.770Z,12.55
2023-05-23T22:39:24.505Z,13.15
2023-05-23T22:41:27.955Z,13.07
2023-05-23T22:43:30.052Z,13.50
2023-05-23T22:45:40.157Z,11.85
2023-05-23T22:47:42.105Z,12.88
2023-05-23T22:49:45.757Z,13.10
2023-05-23T22:51:48.400Z,11.90
2023-05-23T22:53:50.242Z,11.77
2023-05-23T22:55:52.588Z,12.48
2023-05-23T22:57:54.375Z,12.80
2023-05-23T22:59:56.149Z,14.18
2023-05-23T23:01:57.902Z,13.43
2023-05-23T23:03:59.844Z,13.32
2023-05-23T23:06:01.699Z,13.05
2023-05-23T23:08:03.830Z,12.85
2023-05-23T23:10:07.182Z,13.52
2023-05-23T23:12:08.924Z,12.68
2023-05-23T23:14:10.665Z,12.45
2023-05-23T23:16:12.568Z,12.25
2023-05-23T23:18:15.251Z,13.25
2023-05-23T23:20:17.459Z,11.40
2023-05-23T23:22:19.337Z,12.32
2023-05-23T23:24:21.609Z,12.75
2023-05-23T23:26:23.368Z,13.07
2023-05-23T23:28:25.189Z,12.70
2023-05-23T23:30:26.978Z,12.52
2023-05-23T23:32:28.742Z,12.25
2023-05-23T23:34:30.651Z,12.45
2023-05-23T23:36:32.410Z,12.80
2023-05-23T23:38:34.252Z,12.43
2023-05-23T23:40:36.012Z,10.65
2023-05-23T23:42:37.809Z,12.55
2023-05-23T23:44:39.517Z,12.48
2023-05-23T23:46:41.526Z,11.68
2023-05-23T23:48:43.463Z,13.82
2023-05-23T23:50:45.400Z,14.00
2023-05-23T23:52:47.367Z,13.60
2023-05-23T23:54:49.283Z,12.70
2023-05-23T23:56:51.049Z,12.68
2023-05-23T23:58:52.758Z,11.85
